Haines, Alaska
Current Conditions -  °F | °C
As of 7:54 PM on Friday 24 Oct 2014 (Local Time) from PAHN Reporting Station
Overcast Overcast  
Wind Chill: 33°   Ceiling: 3500
Heat Index: 40°   Visibility: 10mi
Dew Point: 36°   Wind: 12mph
Humidity: 86%   Direction: 290°WNW
Pressure: 29.89"   Gusts: NA
Location:  59.24°N, 135.45°W
Report Text: PAHN 250354Z AUTO 29010KT 10SM OVC035 04/02 A2989 RMK AO2 SLP125 T00440022 TSNO
Loading
Personal Weather Stations






























Interactive Weather Map
Tropical Storm Tracking
New forecast layout! Learn more

10-Day Weather Forecast

Advertisements
Track Severe Weather on mobile